Alessandro F — IBVQ — position and weather

sailwx.info

Track history (hours):
 
Tides and Currents Weather Stations Pressure Air Temp Water Temp Dewpoint Dewpoint Depression Visibility Wind Speed Wind Dir Waves Ship Positions

Alessandro F

Last reported at 2016-May-30 03:33 UTC. Time now 2016-Jun-01 03:43 UTC.
Position N 37°19' E 013°02'.

Length 100 m; draft 6.5 m.

Type: Ship. MMSI: 247046400.

Date/timePositionNaut miles runAvg speedWind from/ knotsBaromVisibWave heightAir tempDewpointWater temp
2016-May-30 03:33N 37°19' E 013°02'1211.7
2016-May-30 02:31N 37°14' E 013°16'1212.1
2016-May-30 01:29N 37°08' E 013°30'1112.1
2016-May-30 00:33N 37°03' E 013°42'1212.3
2016-May-29 23:33N 36°57' E 013°56'1212.1
2016-May-29 22:33N 36°51' E 014°09'1111.1
2016-May-29 21:33N 36°42' E 014°17'1110.8
2016-May-29 20:33N 36°33' E 014°23'1111.0
2016-May-29 19:33N 36°23' E 014°30'1111.2
2016-May-29 18:33N 36°13' E 014°36'1211.8
2016-May-29 17:33N 36°02' E 014°43'9 9.1
2016-May-29 16:33N 35°54' E 014°48'0 0.0
2016-May-29 15:33N 35°54' E 014°48'0 0.0
2016-May-29 14:32N 35°54' E 014°48'0 0.0
2016-May-29 13:33N 35°54' E 014°48'0 0.0
2016-May-29 10:32N 35°54' E 014°48'0 0.0
2016-May-29 09:33N 35°54' E 014°48'3 3.2
2016-May-29 08:32N 35°52' E 014°45'1010.4
2016-May-29 07:33N 35°49' E 014°33'4 0.2
2016-May-28 07:10N 35°50' E 014°38'712.2
2016-May-28 06:33N 35°57' E 014°35'1312.9
2016-May-28 05:33N 36°06' E 014°23'1312.5
2016-May-28 04:33N 36°14' E 014°12'1312.8
2016-May-28 03:30N 36°24' E 013°60'1212.9
2016-May-28 02:33N 36°32' E 013°49'1413.0
2016-May-28 01:28N 36°42' E 013°36'7412.5
2016-May-27 19:33N 37°32' E 012°28'2612.8
2016-May-27 17:33N 37°49' E 012°04'1812.4
2016-May-27 16:07N 38°05' E 011°53'9212.1
2016-May-27 08:33N 39°34' E 011°23'1211.9
2016-May-27 07:34N 39°45' E 011°20'2711.9
2016-May-27 05:17N 40°11' E 011°11'3511.8
2016-May-27 02:22N 40°45' E 010°59'1212.3
2016-May-27 01:22N 40°57' E 010°55'1112.5
2016-May-27 00:28N 41°08' E 010°52'1112.7
2016-May-26 23:33N 41°19' E 010°48'1212.5
2016-May-26 22:33N 41°31' E 010°44'1212.2
2016-May-26 21:33N 41°43' E 010°40'2612.5
2016-May-26 19:30N 42°08' E 010°31'1312.7
2016-May-26 18:31N 42°20' E 010°27'2412.1
2016-May-26 16:30N 42°40' E 010°08'1212.5
2016-May-26 15:34N 42°48' E 009°56'1212.1
2016-May-26 14:33N 42°56' E 009°44'1111.5
2016-May-26 13:33N 43°04' E 009°33'1211.8
2016-May-26 12:34N 43°14' E 009°25'1212.2
2016-May-26 11:33N 43°25' E 009°15'1212.2
2016-May-26 10:33N 43°35' E 009°06'1312.6
2016-May-26 09:34N 43°45' E 008°57'1312.7
2016-May-26 08:34N 43°56' E 008°47'1412.8
2016-May-26 07:28N 44°08' E 008°37'12 0.6
2016-May-25 10:31N 44°17' E 008°28'1 0.5
2016-May-25 09:29N 44°17' E 008°29'0 0.0
2016-May-25 08:31N 44°17' E 008°29'0 0.0
2016-May-25 07:33N 44°17' E 008°29'0 0.0
2016-May-25 06:30N 44°17' E 008°29'0 0.0
2016-May-25 05:29N 44°17' E 008°29'0 0.0
2016-May-25 04:27N 44°17' E 008°29'0 0.0
2016-May-25 03:19N 44°17' E 008°29'0 0.0
2016-May-25 02:32N 44°17' E 008°29'0 0.0
2016-May-25 01:30N 44°17' E 008°29'0 0.0
2016-May-25 00:28N 44°17' E 008°29'7110.2
2016-May-24 17:30N 43°23' E 007°24'10511.6
2016-May-24 08:25N 42°51' E 005°07'  
2016-May-22 02:07N 40°14' E 000°50'812.9
2016-May-22 01:29N 40°18' E 000°59'1212.8
2016-May-22 00:33N 40°23' E 001°14'1313.1
2016-May-21 23:33N 40°28' E 001°29'1313.1
2016-May-21 22:33N 40°34' E 001°45'1313.2
2016-May-21 21:33N 40°39' E 002°00'1313.1
2016-May-21 20:33N 40°44' E 002°16'1313.0
2016-May-21 19:33N 40°50' E 002°32'1312.9
2016-May-21 18:33N 40°56' E 002°47'1312.6
2016-May-21 17:33N 41°01' E 003°02'1712.0
2016-May-21 16:09N 41°08' E 003°23'712.0
2016-May-21 15:33N 41°11' E 003°31'1512.2
2016-May-21 14:17N 41°18' E 003°50'8312.1
2016-May-21 07:29N 41°52' E 005°30'1312.7
2016-May-21 06:28N 41°58' E 005°46'2412.8
2016-May-21 04:33N 42°08' E 006°16'13512.2
2016-May-20 17:31N 43°06' E 009°02'1312.0
2016-May-20 16:25N 43°09' E 009°19'1411.3
2016-May-20 15:09N 43°03' E 009°37'711.9
2016-May-20 14:33N 42°56' E 009°42'34 5.5
2016-May-20 08:29N 42°36' E 010°18'8 8.6
2016-May-20 07:33N 42°40' E 010°08'  
Track history (hours):
 
Tides and Currents Weather Stations Pressure Air Temp Water Temp Dewpoint Dewpoint Depression Visibility Wind Speed Wind Dir Waves Ship Positions

Alessandro F

Last reported at 2016-May-30 03:33 UTC. Time now 2016-Jun-01 03:43 UTC.
Position N 37°19' E 013°02'.

Length 100 m; draft 6.5 m.

Type: Ship. MMSI: 247046400.

Date/timePositionNaut miles runAvg speedWind from/ knotsBaromVisibWave heightAir tempDewpointWater temp
2016-May-30 03:33N 37°19' E 013°02'1211.7
2016-May-30 02:31N 37°14' E 013°16'1212.1
2016-May-30 01:29N 37°08' E 013°30'1112.1
2016-May-30 00:33N 37°03' E 013°42'1212.3
2016-May-29 23:33N 36°57' E 013°56'1212.1
2016-May-29 22:33N 36°51' E 014°09'1111.1
2016-May-29 21:33N 36°42' E 014°17'1110.8
2016-May-29 20:33N 36°33' E 014°23'1111.0
2016-May-29 19:33N 36°23' E 014°30'1111.2
2016-May-29 18:33N 36°13' E 014°36'1211.8
2016-May-29 17:33N 36°02' E 014°43'9 9.1
2016-May-29 16:33N 35°54' E 014°48'0 0.0
2016-May-29 15:33N 35°54' E 014°48'0 0.0
2016-May-29 14:32N 35°54' E 014°48'0 0.0
2016-May-29 13:33N 35°54' E 014°48'0 0.0
2016-May-29 10:32N 35°54' E 014°48'0 0.0
2016-May-29 09:33N 35°54' E 014°48'3 3.2
2016-May-29 08:32N 35°52' E 014°45'1010.4
2016-May-29 07:33N 35°49' E 014°33'4 0.2
2016-May-28 07:10N 35°50' E 014°38'712.2
2016-May-28 06:33N 35°57' E 014°35'1312.9
2016-May-28 05:33N 36°06' E 014°23'1312.5
2016-May-28 04:33N 36°14' E 014°12'1312.8
2016-May-28 03:30N 36°24' E 013°60'1212.9
2016-May-28 02:33N 36°32' E 013°49'1413.0
2016-May-28 01:28N 36°42' E 013°36'7412.5
2016-May-27 19:33N 37°32' E 012°28'2612.8
2016-May-27 17:33N 37°49' E 012°04'1812.4
2016-May-27 16:07N 38°05' E 011°53'9212.1
2016-May-27 08:33N 39°34' E 011°23'1211.9
2016-May-27 07:34N 39°45' E 011°20'2711.9
2016-May-27 05:17N 40°11' E 011°11'3511.8
2016-May-27 02:22N 40°45' E 010°59'1212.3
2016-May-27 01:22N 40°57' E 010°55'1112.5
2016-May-27 00:28N 41°08' E 010°52'1112.7
2016-May-26 23:33N 41°19' E 010°48'1212.5
2016-May-26 22:33N 41°31' E 010°44'1212.2
2016-May-26 21:33N 41°43' E 010°40'2612.5
2016-May-26 19:30N 42°08' E 010°31'1312.7
2016-May-26 18:31N 42°20' E 010°27'2412.1
2016-May-26 16:30N 42°40' E 010°08'1212.5
2016-May-26 15:34N 42°48' E 009°56'1212.1
2016-May-26 14:33N 42°56' E 009°44'1111.5
2016-May-26 13:33N 43°04' E 009°33'1211.8
2016-May-26 12:34N 43°14' E 009°25'1212.2
2016-May-26 11:33N 43°25' E 009°15'1212.2
2016-May-26 10:33N 43°35' E 009°06'1312.6
2016-May-26 09:34N 43°45' E 008°57'1312.7
2016-May-26 08:34N 43°56' E 008°47'1412.8
2016-May-26 07:28N 44°08' E 008°37'12 0.6
2016-May-25 10:31N 44°17' E 008°28'1 0.5
2016-May-25 09:29N 44°17' E 008°29'0 0.0
2016-May-25 08:31N 44°17' E 008°29'0 0.0
2016-May-25 07:33N 44°17' E 008°29'0 0.0
2016-May-25 06:30N 44°17' E 008°29'0 0.0
2016-May-25 05:29N 44°17' E 008°29'0 0.0
2016-May-25 04:27N 44°17' E 008°29'0 0.0
2016-May-25 03:19N 44°17' E 008°29'0 0.0
2016-May-25 02:32N 44°17' E 008°29'0 0.0
2016-May-25 01:30N 44°17' E 008°29'0 0.0
2016-May-25 00:28N 44°17' E 008°29'7110.2
2016-May-24 17:30N 43°23' E 007°24'10511.6
2016-May-24 08:25N 42°51' E 005°07'  
2016-May-22 02:07N 40°14' E 000°50'812.9
2016-May-22 01:29N 40°18' E 000°59'1212.8
2016-May-22 00:33N 40°23' E 001°14'1313.1
2016-May-21 23:33N 40°28' E 001°29'1313.1
2016-May-21 22:33N 40°34' E 001°45'1313.2
2016-May-21 21:33N 40°39' E 002°00'1313.1
2016-May-21 20:33N 40°44' E 002°16'1313.0
2016-May-21 19:33N 40°50' E 002°32'1312.9
2016-May-21 18:33N 40°56' E 002°47'1312.6
2016-May-21 17:33N 41°01' E 003°02'1712.0
2016-May-21 16:09N 41°08' E 003°23'712.0
2016-May-21 15:33N 41°11' E 003°31'1512.2
2016-May-21 14:17N 41°18' E 003°50'8312.1
2016-May-21 07:29N 41°52' E 005°30'1312.7
2016-May-21 06:28N 41°58' E 005°46'2412.8
2016-May-21 04:33N 42°08' E 006°16'13512.2
2016-May-20 17:31N 43°06' E 009°02'1312.0
2016-May-20 16:25N 43°09' E 009°19'1411.3
2016-May-20 15:09N 43°03' E 009°37'711.9
2016-May-20 14:33N 42°56' E 009°42'34 5.5
2016-May-20 08:29N 42°36' E 010°18'8 8.6
2016-May-20 07:33N 42°40' E 010°08'  

Dump ship's entire track history